sensor_id;sensor_type;location;lat;lon;timestamp;temperature;humidity
68387;DHT22;55338;43.062;25.624;2023-04-24T00:00:16;8.80;99.90
68387;DHT22;55338;43.062;25.624;2023-04-24T00:02:44;8.80;99.90
68387;DHT22;55338;43.062;25.624;2023-04-24T00:05:17;8.80;99.90
68387;DHT22;55338;43.062;25.624;2023-04-24T00:07:44;8.70;99.90
68387;DHT22;55338;43.062;25.624;2023-04-24T00:10:10;8.70;99.90
68387;DHT22;55338;43.062;25.624;2023-04-24T00:12:36;8.70;99.90
68387;DHT22;55338;43.062;25.624;2023-04-24T00:15:02;8.70;99.90
68387;DHT22;55338;43.062;25.624;2023-04-24T00:17:28;8.70;99.90
68387;DHT22;55338;43.062;25.624;2023-04-24T00:19:54;8.70;99.90
68387;DHT22;55338;43.062;25.624;2023-04-24T00:22:30;8.60;99.90
68387;DHT22;55338;43.062;25.624;2023-04-24T00:24:56;8.50;99.90
68387;DHT22;55338;43.062;25.624;2023-04-24T00:27:22;8.50;99.90
68387;DHT22;55338;43.062;25.624;2023-04-24T00:29:48;8.60;99.90
68387;DHT22;55338;43.062;25.624;2023-04-24T00:32:14;8.50;99.90
68387;DHT22;55338;43.062;25.624;2023-04-24T00:34:40;8.40;99.90
68387;DHT22;55338;43.062;25.624;2023-04-24T00:37:06;8.40;99.90
68387;DHT22;55338;43.062;25.624;2023-04-24T00:39:33;8.40;99.90
68387;DHT22;55338;43.062;25.624;2023-04-24T00:41:58;8.40;99.90
68387;DHT22;55338;43.062;25.624;2023-04-24T00:44:25;8.40;99.90
68387;DHT22;55338;43.062;25.624;2023-04-24T00:46:51;8.40;99.90
68387;DHT22;55338;43.062;25.624;2023-04-24T00:49:21;8.40;99.90
68387;DHT22;55338;43.062;25.624;2023-04-24T00:51:47;8.40;99.90
68387;DHT22;55338;43.062;25.624;2023-04-24T00:54:15;8.30;99.90
68387;DHT22;55338;43.062;25.624;2023-04-24T00:56:42;8.30;99.90
68387;DHT22;55338;43.062;25.624;2023-04-24T00:59:08;8.20;99.90
68387;DHT22;55338;43.062;25.624;2023-04-24T01:01:34;8.20;99.90
68387;DHT22;55338;43.062;25.624;2023-04-24T01:04:00;8.20;99.90
68387;DHT22;55338;43.062;25.624;2023-04-24T01:06:28;8.10;99.90
68387;DHT22;55338;43.062;25.624;2023-04-24T01:08:54;8.10;99.90
68387;DHT22;55338;43.062;25.624;2023-04-24T01:11:24;8.10;99.90
68387;DHT22;55338;43.062;25.624;2023-04-24T01:13:51;8.00;99.90
68387;DHT22;55338;43.062;25.624;2023-04-24T01:16:18;8.00;99.90
68387;DHT22;55338;43.062;25.624;2023-04-24T01:18:46;8.00;99.90
68387;DHT22;55338;43.062;25.624;2023-04-24T01:21:14;8.00;99.90
68387;DHT22;55338;43.062;25.624;2023-04-24T01:23:40;7.90;99.90
68387;DHT22;55338;43.062;25.624;2023-04-24T01:26:06;7.90;99.90
68387;DHT22;55338;43.062;25.624;2023-04-24T01:28:32;7.80;99.90
68387;DHT22;55338;43.062;25.624;2023-04-24T01:30:58;7.80;99.90
68387;DHT22;55338;43.062;25.624;2023-04-24T01:33:25;7.70;99.90
68387;DHT22;55338;43.062;25.624;2023-04-24T01:35:51;7.70;99.90
68387;DHT22;55338;43.062;25.624;2023-04-24T01:38:17;7.70;99.90
68387;DHT22;55338;43.062;25.624;2023-04-24T01:40:43;7.70;99.90
68387;DHT22;55338;43.062;25.624;2023-04-24T01:43:09;7.70;99.90
68387;DHT22;55338;43.062;25.624;2023-04-24T01:45:35;7.70;99.90
68387;DHT22;55338;43.062;25.624;2023-04-24T01:48:00;7.70;99.90
68387;DHT22;55338;43.062;25.624;2023-04-24T01:50:26;7.70;99.90
68387;DHT22;55338;43.062;25.624;2023-04-24T01:52:52;7.60;99.90
68387;DHT22;55338;43.062;25.624;2023-04-24T01:55:18;7.70;99.90
68387;DHT22;55338;43.062;25.624;2023-04-24T01:57:43;7.70;99.90
68387;DHT22;55338;43.062;25.624;2023-04-24T02:00:10;7.70;99.90
68387;DHT22;55338;43.062;25.624;2023-04-24T02:02:38;7.70;99.90
68387;DHT22;55338;43.062;25.624;2023-04-24T02:05:06;7.70;99.90
68387;DHT22;55338;43.062;25.624;2023-04-24T02:07:32;7.60;99.90
68387;DHT22;55338;43.062;25.624;2023-04-24T02:09:58;7.60;99.90
68387;DHT22;55338;43.062;25.624;2023-04-24T02:12:24;7.60;99.90
68387;DHT22;55338;43.062;25.624;2023-04-24T02:14:50;7.70;99.90
68387;DHT22;55338;43.062;25.624;2023-04-24T02:17:16;7.70;99.90
68387;DHT22;55338;43.062;25.624;2023-04-24T02:19:42;7.70;99.90
68387;DHT22;55338;43.062;25.624;2023-04-24T02:22:08;7.70;99.90
68387;DHT22;55338;43.062;25.624;2023-04-24T02:24:33;7.70;99.90
68387;DHT22;55338;43.062;25.624;2023-04-24T02:26:59;7.60;99.90
68387;DHT22;55338;43.062;25.624;2023-04-24T02:29:25;7.70;99.90
68387;DHT22;55338;43.062;25.624;2023-04-24T02:31:51;7.60;99.90
68387;DHT22;55338;43.062;25.624;2023-04-24T02:34:17;7.70;99.90
68387;DHT22;55338;43.062;25.624;2023-04-24T02:36:42;7.70;99.90
68387;DHT22;55338;43.062;25.624;2023-04-24T02:39:08;7.70;99.90
68387;DHT22;55338;43.062;25.624;2023-04-24T02:41:34;7.70;99.90
68387;DHT22;55338;43.062;25.624;2023-04-24T02:43:59;7.60;99.90
68387;DHT22;55338;43.062;25.624;2023-04-24T02:46:25;7.60;99.90
68387;DHT22;55338;43.062;25.624;2023-04-24T02:48:51;7.60;99.90
68387;DHT22;55338;43.062;25.624;2023-04-24T02:51:17;7.60;99.90
68387;DHT22;55338;43.062;25.624;2023-04-24T02:53:43;7.50;99.90
68387;DHT22;55338;43.062;25.624;2023-04-24T02:56:09;7.50;99.90
68387;DHT22;55338;43.062;25.624;2023-04-24T02:58:37;7.60;99.90
68387;DHT22;55338;43.062;25.624;2023-04-24T03:01:03;7.50;99.90
68387;DHT22;55338;43.062;25.624;2023-04-24T03:03:30;7.50;99.90
68387;DHT22;55338;43.062;25.624;2023-04-24T03:05:55;7.50;99.90
68387;DHT22;55338;43.062;25.624;2023-04-24T03:08:22;7.40;99.90
68387;DHT22;55338;43.062;25.624;2023-04-24T03:10:48;7.40;99.90
68387;DHT22;55338;43.062;25.624;2023-04-24T03:13:15;7.40;99.90
68387;DHT22;55338;43.062;25.624;2023-04-24T03:15:41;7.30;99.90
68387;DHT22;55338;43.062;25.624;2023-04-24T03:18:07;7.30;99.90
68387;DHT22;55338;43.062;25.624;2023-04-24T03:20:33;7.30;99.90
68387;DHT22;55338;43.062;25.624;2023-04-24T03:22:58;7.30;99.90
68387;DHT22;55338;43.062;25.624;2023-04-24T03:25:25;7.20;99.90
68387;DHT22;55338;43.062;25.624;2023-04-24T03:27:51;7.20;99.90
68387;DHT22;55338;43.062;25.624;2023-04-24T03:30:17;7.10;99.90
68387;DHT22;55338;43.062;25.624;2023-04-24T03:32:42;7.10;99.90
68387;DHT22;55338;43.062;25.624;2023-04-24T03:35:08;7.10;99.90
68387;DHT22;55338;43.062;25.624;2023-04-24T03:37:34;7.10;99.90
68387;DHT22;55338;43.062;25.624;2023-04-24T03:40:01;7.20;99.90
68387;DHT22;55338;43.062;25.624;2023-04-24T03:42:26;7.10;99.90
68387;DHT22;55338;43.062;25.624;2023-04-24T03:44:52;7.20;99.90
68387;DHT22;55338;43.062;25.624;2023-04-24T03:47:18;7.20;99.90
68387;DHT22;55338;43.062;25.624;2023-04-24T03:49:44;7.30;99.90
68387;DHT22;55338;43.062;25.624;2023-04-24T03:52:09;7.20;99.90
68387;DHT22;55338;43.062;25.624;2023-04-24T03:54:35;7.20;99.90
68387;DHT22;55338;43.062;25.624;2023-04-24T03:57:01;7.30;99.90
68387;DHT22;55338;43.062;25.624;2023-04-24T03:59:27;7.40;99.90
68387;DHT22;55338;43.062;25.624;2023-04-24T04:01:52;7.50;99.90
68387;DHT22;55338;43.062;25.624;2023-04-24T04:04:18;7.50;99.90
68387;DHT22;55338;43.062;25.624;2023-04-24T04:06:44;7.60;99.90
68387;DHT22;55338;43.062;25.624;2023-04-24T04:09:10;7.70;99.90
68387;DHT22;55338;43.062;25.624;2023-04-24T04:11:36;7.80;99.90
68387;DHT22;55338;43.062;25.624;2023-04-24T04:14:02;7.90;99.90
68387;DHT22;55338;43.062;25.624;2023-04-24T04:16:28;8.10;99.90
68387;DHT22;55338;43.062;25.624;2023-04-24T04:18:54;8.30;99.90
68387;DHT22;55338;43.062;25.624;2023-04-24T04:21:19;8.30;99.90
68387;DHT22;55338;43.062;25.624;2023-04-24T04:23:45;8.50;99.90
68387;DHT22;55338;43.062;25.624;2023-04-24T04:26:11;8.70;99.90
68387;DHT22;55338;43.062;25.624;2023-04-24T04:28:38;8.90;99.90
68387;DHT22;55338;43.062;25.624;2023-04-24T04:31:04;9.00;99.90
68387;DHT22;55338;43.062;25.624;2023-04-24T04:33:30;9.20;99.90
68387;DHT22;55338;43.062;25.624;2023-04-24T04:35:57;9.40;99.90
68387;DHT22;55338;43.062;25.624;2023-04-24T04:38:22;9.50;99.90
68387;DHT22;55338;43.062;25.624;2023-04-24T04:40:48;9.70;99.90
68387;DHT22;55338;43.062;25.624;2023-04-24T04:43:14;9.90;99.90
68387;DHT22;55338;43.062;25.624;2023-04-24T04:45:41;10.10;99.90
68387;DHT22;55338;43.062;25.624;2023-04-24T04:48:09;10.30;99.90
68387;DHT22;55338;43.062;25.624;2023-04-24T04:50:37;10.40;99.90
68387;DHT22;55338;43.062;25.624;2023-04-24T04:53:03;10.60;99.90
68387;DHT22;55338;43.062;25.624;2023-04-24T04:55:29;10.80;99.90
68387;DHT22;55338;43.062;25.624;2023-04-24T04:57:55;10.90;99.90
68387;DHT22;55338;43.062;25.624;2023-04-24T05:00:24;11.00;99.90
68387;DHT22;55338;43.062;25.624;2023-04-24T05:02:51;11.20;99.90
68387;DHT22;55338;43.062;25.624;2023-04-24T05:05:17;11.50;99.90
68387;DHT22;55338;43.062;25.624;2023-04-24T05:07:43;11.60;99.90
68387;DHT22;55338;43.062;25.624;2023-04-24T05:10:09;11.80;99.90
68387;DHT22;55338;43.062;25.624;2023-04-24T05:12:36;12.10;99.90
68387;DHT22;55338;43.062;25.624;2023-04-24T05:15:02;12.50;99.90
68387;DHT22;55338;43.062;25.624;2023-04-24T05:17:28;12.70;99.90
68387;DHT22;55338;43.062;25.624;2023-04-24T05:19:54;13.00;99.90
68387;DHT22;55338;43.062;25.624;2023-04-24T05:22:20;13.30;99.90
68387;DHT22;55338;43.062;25.624;2023-04-24T05:24:47;13.50;99.90
68387;DHT22;55338;43.062;25.624;2023-04-24T05:27:13;13.80;99.90
68387;DHT22;55338;43.062;25.624;2023-04-24T05:29:39;14.10;99.90
68387;DHT22;55338;43.062;25.624;2023-04-24T05:32:05;14.20;99.90
68387;DHT22;55338;43.062;25.624;2023-04-24T05:34:32;14.60;99.90
68387;DHT22;55338;43.062;25.624;2023-04-24T05:36:57;15.00;99.90
68387;DHT22;55338;43.062;25.624;2023-04-24T05:39:23;15.40;94.90
68387;DHT22;55338;43.062;25.624;2023-04-24T05:41:50;15.80;92.30
68387;DHT22;55338;43.062;25.624;2023-04-24T05:44:16;16.10;88.90
68387;DHT22;55338;43.062;25.624;2023-04-24T05:46:42;16.30;88.00
68387;DHT22;55338;43.062;25.624;2023-04-24T05:49:08;16.60;84.40
68387;DHT22;55338;43.062;25.624;2023-04-24T05:51:33;16.80;80.90
68387;DHT22;55338;43.062;25.624;2023-04-24T05:53:59;16.90;79.70
68387;DHT22;55338;43.062;25.624;2023-04-24T05:56:25;17.10;78.90
68387;DHT22;55338;43.062;25.624;2023-04-24T05:58:51;17.40;78.90
68387;DHT22;55338;43.062;25.624;2023-04-24T06:01:17;17.60;76.80
68387;DHT22;55338;43.062;25.624;2023-04-24T06:03:43;17.70;76.30
68387;DHT22;55338;43.062;25.624;2023-04-24T06:06:09;17.90;74.80
68387;DHT22;55338;43.062;25.624;2023-04-24T06:08:35;17.90;72.40
68387;DHT22;55338;43.062;25.624;2023-04-24T06:11:01;17.80;72.90
68387;DHT22;55338;43.062;25.624;2023-04-24T06:13:27;17.80;72.30
68387;DHT22;55338;43.062;25.624;2023-04-24T06:15:53;18.00;71.00
68387;DHT22;55338;43.062;25.624;2023-04-24T06:18:19;18.30;71.70
68387;DHT22;55338;43.062;25.624;2023-04-24T06:20:46;18.90;69.20
68387;DHT22;55338;43.062;25.624;2023-04-24T06:23:12;19.30;66.30
68387;DHT22;55338;43.062;25.624;2023-04-24T06:25:38;19.70;64.50
68387;DHT22;55338;43.062;25.624;2023-04-24T06:28:04;20.20;64.40
68387;DHT22;55338;43.062;25.624;2023-04-24T06:30:30;20.70;60.80
68387;DHT22;55338;43.062;25.624;2023-04-24T06:32:56;21.20;58.50
68387;DHT22;55338;43.062;25.624;2023-04-24T06:35:22;21.50;58.60
68387;DHT22;55338;43.062;25.624;2023-04-24T06:37:48;21.80;55.90
68387;DHT22;55338;43.062;25.624;2023-04-24T06:40:14;22.00;53.70
68387;DHT22;55338;43.062;25.624;2023-04-24T06:42:40;22.10;53.40
68387;DHT22;55338;43.062;25.624;2023-04-24T06:45:06;22.40;53.60
68387;DHT22;55338;43.062;25.624;2023-04-24T06:47:32;22.80;53.20
68387;DHT22;55338;43.062;25.624;2023-04-24T06:49:58;23.10;51.40
68387;DHT22;55338;43.062;25.624;2023-04-24T06:52:24;23.00;49.70
68387;DHT22;55338;43.062;25.624;2023-04-24T06:54:50;23.00;49.50
68387;DHT22;55338;43.062;25.624;2023-04-24T06:57:15;22.90;50.50
68387;DHT22;55338;43.062;25.624;2023-04-24T06:59:44;22.90;51.00
68387;DHT22;55338;43.062;25.624;2023-04-24T07:02:10;23.10;49.30
68387;DHT22;55338;43.062;25.624;2023-04-24T07:04:35;23.40;50.00
68387;DHT22;55338;43.062;25.624;2023-04-24T07:07:02;23.70;49.30
68387;DHT22;55338;43.062;25.624;2023-04-24T07:09:28;23.70;48.10
68387;DHT22;55338;43.062;25.624;2023-04-24T07:11:54;23.70;48.00
68387;DHT22;55338;43.062;25.624;2023-04-24T07:14:20;24.00;45.80
68387;DHT22;55338;43.062;25.624;2023-04-24T07:16:46;24.70;45.50
68387;DHT22;55338;43.062;25.624;2023-04-24T07:19:12;25.30;44.20
68387;DHT22;55338;43.062;25.624;2023-04-24T07:21:38;25.80;43.50
68387;DHT22;55338;43.062;25.624;2023-04-24T07:24:04;25.70;41.80
68387;DHT22;55338;43.062;25.624;2023-04-24T07:26:30;26.00;43.20
68387;DHT22;55338;43.062;25.624;2023-04-24T07:28:56;25.90;42.50
68387;DHT22;55338;43.062;25.624;2023-04-24T07:31:22;25.60;45.00
68387;DHT22;55338;43.062;25.624;2023-04-24T07:33:48;25.10;42.50
68387;DHT22;55338;43.062;25.624;2023-04-24T07:36:14;24.40;43.50
68387;DHT22;55338;43.062;25.624;2023-04-24T07:38:44;24.00;44.40
68387;DHT22;55338;43.062;25.624;2023-04-24T07:41:10;23.90;45.00
68387;DHT22;55338;43.062;25.624;2023-04-24T07:43:36;23.40;44.90
68387;DHT22;55338;43.062;25.624;2023-04-24T07:46:02;23.50;45.10
68387;DHT22;55338;43.062;25.624;2023-04-24T07:48:28;23.50;45.50
68387;DHT22;55338;43.062;25.624;2023-04-24T07:50:54;23.80;46.00
68387;DHT22;55338;43.062;25.624;2023-04-24T07:53:20;23.80;44.50
68387;DHT22;55338;43.062;25.624;2023-04-24T07:55:45;23.90;47.10
68387;DHT22;55338;43.062;25.624;2023-04-24T07:58:11;23.90;48.30
68387;DHT22;55338;43.062;25.624;2023-04-24T08:00:37;23.80;46.50
68387;DHT22;55338;43.062;25.624;2023-04-24T08:03:03;23.70;46.40
68387;DHT22;55338;43.062;25.624;2023-04-24T08:05:29;23.20;46.70
68387;DHT22;55338;43.062;25.624;2023-04-24T08:07:55;22.90;46.50
68387;DHT22;55338;43.062;25.624;2023-04-24T08:10:22;22.80;48.40
68387;DHT22;55338;43.062;25.624;2023-04-24T08:12:48;22.70;46.90
68387;DHT22;55338;43.062;25.624;2023-04-24T08:15:14;22.70;48.90
68387;DHT22;55338;43.062;25.624;2023-04-24T08:17:40;22.60;48.60
68387;DHT22;55338;43.062;25.624;2023-04-24T08:20:07;22.90;47.80
68387;DHT22;55338;43.062;25.624;2023-04-24T08:22:41;23.00;47.00
68387;DHT22;55338;43.062;25.624;2023-04-24T08:25:08;23.00;46.50
68387;DHT22;55338;43.062;25.624;2023-04-24T08:27:34;23.00;46.50
68387;DHT22;55338;43.062;25.624;2023-04-24T08:30:00;22.90;47.70
68387;DHT22;55338;43.062;25.624;2023-04-24T08:32:26;22.90;46.70
68387;DHT22;55338;43.062;25.624;2023-04-24T08:34:58;22.90;46.60
68387;DHT22;55338;43.062;25.624;2023-04-24T08:37:25;22.60;46.50
68387;DHT22;55338;43.062;25.624;2023-04-24T08:39:51;22.60;47.70
68387;DHT22;55338;43.062;25.624;2023-04-24T08:42:18;22.50;47.00
68387;DHT22;55338;43.062;25.624;2023-04-24T08:44:44;22.60;47.20
68387;DHT22;55338;43.062;25.624;2023-04-24T08:47:11;22.50;47.20
68387;DHT22;55338;43.062;25.624;2023-04-24T08:49:38;22.50;48.20
68387;DHT22;55338;43.062;25.624;2023-04-24T08:52:05;22.30;48.90
68387;DHT22;55338;43.062;25.624;2023-04-24T08:54:34;22.00;50.40
68387;DHT22;55338;43.062;25.624;2023-04-24T08:57:02;22.00;50.80
68387;DHT22;55338;43.062;25.624;2023-04-24T08:59:29;21.90;51.40
68387;DHT22;55338;43.062;25.624;2023-04-24T09:01:56;22.00;51.30
68387;DHT22;55338;43.062;25.624;2023-04-24T09:04:23;22.10;52.00
68387;DHT22;55338;43.062;25.624;2023-04-24T09:06:59;22.20;51.90
68387;DHT22;55338;43.062;25.624;2023-04-24T09:09:26;22.20;50.80
68387;DHT22;55338;43.062;25.624;2023-04-24T09:11:52;22.20;50.00
68387;DHT22;55338;43.062;25.624;2023-04-24T09:14:21;22.30;49.20
68387;DHT22;55338;43.062;25.624;2023-04-24T09:16:49;22.40;50.20
68387;DHT22;55338;43.062;25.624;2023-04-24T09:19:15;22.80;50.90
68387;DHT22;55338;43.062;25.624;2023-04-24T09:21:40;23.50;50.60
68387;DHT22;55338;43.062;25.624;2023-04-24T09:24:16;23.70;46.90
68387;DHT22;55338;43.062;25.624;2023-04-24T09:26:43;24.80;44.70
68387;DHT22;55338;43.062;25.624;2023-04-24T09:29:15;25.80;44.00
68387;DHT22;55338;43.062;25.624;2023-04-24T09:31:41;25.80;42.20
68387;DHT22;55338;43.062;25.624;2023-04-24T09:34:07;24.80;42.70
68387;DHT22;55338;43.062;25.624;2023-04-24T09:36:41;24.20;44.70
68387;DHT22;55338;43.062;25.624;2023-04-24T09:39:12;24.10;45.30
68387;DHT22;55338;43.062;25.624;2023-04-24T09:41:50;24.30;45.20
68387;DHT22;55338;43.062;25.624;2023-04-24T09:46:43;24.40;41.80
68387;DHT22;55338;43.062;25.624;2023-04-24T09:49:14;25.10;42.40
68387;DHT22;55338;43.062;25.624;2023-04-24T09:51:43;25.40;38.30
68387;DHT22;55338;43.062;25.624;2023-04-24T09:54:19;26.10;37.90
68387;DHT22;55338;43.062;25.624;2023-04-24T09:56:48;26.10;36.50
68387;DHT22;55338;43.062;25.624;2023-04-24T09:59:17;25.90;36.40
68387;DHT22;55338;43.062;25.624;2023-04-24T10:01:43;25.80;36.60
68387;DHT22;55338;43.062;25.624;2023-04-24T10:06:43;25.50;39.30
68387;DHT22;55338;43.062;25.624;2023-04-24T10:09:09;24.90;40.90
68387;DHT22;55338;43.062;25.624;2023-04-24T10:11:38;25.20;42.30
68387;DHT22;55338;43.062;25.624;2023-04-24T10:14:06;25.30;41.00
68387;DHT22;55338;43.062;25.624;2023-04-24T10:16:34;25.00;40.80
68387;DHT22;55338;43.062;25.624;2023-04-24T10:19:00;24.80;41.10
68387;DHT22;55338;43.062;25.624;2023-04-24T10:21:26;24.80;41.20
68387;DHT22;55338;43.062;25.624;2023-04-24T10:23:53;25.10;42.70
68387;DHT22;55338;43.062;25.624;2023-04-24T10:26:19;24.80;44.00
68387;DHT22;55338;43.062;25.624;2023-04-24T10:28:46;24.40;44.00
68387;DHT22;55338;43.062;25.624;2023-04-24T10:31:13;24.20;44.40
68387;DHT22;55338;43.062;25.624;2023-04-24T10:33:43;24.60;43.80
68387;DHT22;55338;43.062;25.624;2023-04-24T10:36:10;25.80;40.10
68387;DHT22;55338;43.062;25.624;2023-04-24T10:38:39;26.00;40.70
68387;DHT22;55338;43.062;25.624;2023-04-24T10:41:13;26.40;39.60
68387;DHT22;55338;43.062;25.624;2023-04-24T10:43:45;26.80;38.70
68387;DHT22;55338;43.062;25.624;2023-04-24T10:46:19;27.00;39.70
68387;DHT22;55338;43.062;25.624;2023-04-24T10:48:52;27.00;39.10
68387;DHT22;55338;43.062;25.624;2023-04-24T10:51:24;27.10;40.50
68387;DHT22;55338;43.062;25.624;2023-04-24T10:54:24;26.80;39.80
68387;DHT22;55338;43.062;25.624;2023-04-24T10:56:51;26.30;40.30
68387;DHT22;55338;43.062;25.624;2023-04-24T10:59:27;25.90;40.00
68387;DHT22;55338;43.062;25.624;2023-04-24T11:02:00;25.50;39.60
68387;DHT22;55338;43.062;25.624;2023-04-24T11:04:30;25.40;40.10
68387;DHT22;55338;43.062;25.624;2023-04-24T11:06:57;25.10;40.90
68387;DHT22;55338;43.062;25.624;2023-04-24T11:09:32;24.80;41.40
68387;DHT22;55338;43.062;25.624;2023-04-24T11:17:38;24.80;40.90
68387;DHT22;55338;43.062;25.624;2023-04-24T11:20:10;25.20;41.40
68387;DHT22;55338;43.062;25.624;2023-04-24T11:22:38;25.00;40.70
68387;DHT22;55338;43.062;25.624;2023-04-24T11:25:06;26.10;39.20
68387;DHT22;55338;43.062;25.624;2023-04-24T11:27:43;26.50;39.40
68387;DHT22;55338;43.062;25.624;2023-04-24T11:30:10;27.20;36.90
68387;DHT22;55338;43.062;25.624;2023-04-24T11:32:36;27.80;35.40
68387;DHT22;55338;43.062;25.624;2023-04-24T11:35:16;27.90;34.40
68387;DHT22;55338;43.062;25.624;2023-04-24T11:37:48;27.90;35.50
68387;DHT22;55338;43.062;25.624;2023-04-24T11:40:19;28.30;34.20
68387;DHT22;55338;43.062;25.624;2023-04-24T11:42:53;28.40;33.80
68387;DHT22;55338;43.062;25.624;2023-04-24T11:45:28;27.70;36.40
68387;DHT22;55338;43.062;25.624;2023-04-24T11:47:55;28.10;35.90
68387;DHT22;55338;43.062;25.624;2023-04-24T11:50:26;27.90;35.50
68387;DHT22;55338;43.062;25.624;2023-04-24T11:52:54;28.40;36.40
68387;DHT22;55338;43.062;25.624;2023-04-24T11:57:48;28.10;35.30
68387;DHT22;55338;43.062;25.624;2023-04-24T12:00:24;27.70;36.10
68387;DHT22;55338;43.062;25.624;2023-04-24T12:02:51;27.10;36.80
68387;DHT22;55338;43.062;25.624;2023-04-24T12:05:24;26.50;37.50
68387;DHT22;55338;43.062;25.624;2023-04-24T12:07:53;26.20;37.70
68387;DHT22;55338;43.062;25.624;2023-04-24T12:10:27;26.30;38.80
68387;DHT22;55338;43.062;25.624;2023-04-24T12:12:53;26.40;37.50
68387;DHT22;55338;43.062;25.624;2023-04-24T12:15:21;26.30;38.00
68387;DHT22;55338;43.062;25.624;2023-04-24T12:17:47;26.20;38.50
68387;DHT22;55338;43.062;25.624;2023-04-24T12:20:15;26.30;39.50
68387;DHT22;55338;43.062;25.624;2023-04-24T12:22:53;26.20;39.40
68387;DHT22;55338;43.062;25.624;2023-04-24T12:25:23;27.00;37.60
68387;DHT22;55338;43.062;25.624;2023-04-24T12:31:01;26.90;38.60
68387;DHT22;55338;43.062;25.624;2023-04-24T12:33:27;27.20;38.40
68387;DHT22;55338;43.062;25.624;2023-04-24T12:35:53;27.80;36.90
68387;DHT22;55338;43.062;25.624;2023-04-24T12:38:22;28.50;36.70
68387;DHT22;55338;43.062;25.624;2023-04-24T12:41:01;28.60;36.10
68387;DHT22;55338;43.062;25.624;2023-04-24T12:43:28;28.20;36.60
68387;DHT22;55338;43.062;25.624;2023-04-24T12:45:54;27.40;36.40
68387;DHT22;55338;43.062;25.624;2023-04-24T12:48:20;26.80;37.20
68387;DHT22;55338;43.062;25.624;2023-04-24T12:50:46;26.20;37.40
68387;DHT22;55338;43.062;25.624;2023-04-24T12:53:12;25.90;38.00
68387;DHT22;55338;43.062;25.624;2023-04-24T12:55:38;25.80;37.90
68387;DHT22;55338;43.062;25.624;2023-04-24T12:58:04;26.40;38.80
68387;DHT22;55338;43.062;25.624;2023-04-24T13:00:29;27.10;36.10
68387;DHT22;55338;43.062;25.624;2023-04-24T13:02:55;27.00;34.10
68387;DHT22;55338;43.062;25.624;2023-04-24T13:05:21;26.60;34.40
68387;DHT22;55338;43.062;25.624;2023-04-24T13:07:47;26.00;35.00
68387;DHT22;55338;43.062;25.624;2023-04-24T13:10:13;25.40;35.90
68387;DHT22;55338;43.062;25.624;2023-04-24T13:12:39;25.20;37.20
68387;DHT22;55338;43.062;25.624;2023-04-24T13:15:06;25.30;38.40
68387;DHT22;55338;43.062;25.624;2023-04-24T13:17:32;26.00;36.10
68387;DHT22;55338;43.062;25.624;2023-04-24T13:19:58;26.50;35.10
68387;DHT22;55338;43.062;25.624;2023-04-24T13:22:24;26.10;36.10
68387;DHT22;55338;43.062;25.624;2023-04-24T13:24:50;25.90;35.60
68387;DHT22;55338;43.062;25.624;2023-04-24T13:27:17;25.80;40.30
68387;DHT22;55338;43.062;25.624;2023-04-24T13:29:43;25.60;41.20
68387;DHT22;55338;43.062;25.624;2023-04-24T13:32:09;25.50;43.30
68387;DHT22;55338;43.062;25.624;2023-04-24T13:34:34;25.90;43.00
68387;DHT22;55338;43.062;25.624;2023-04-24T13:37:00;26.30;42.10
68387;DHT22;55338;43.062;25.624;2023-04-24T13:39:27;26.20;41.40
68387;DHT22;55338;43.062;25.624;2023-04-24T13:41:53;25.70;42.30
68387;DHT22;55338;43.062;25.624;2023-04-24T13:44:20;25.40;42.70
68387;DHT22;55338;43.062;25.624;2023-04-24T13:46:47;25.10;43.70
68387;DHT22;55338;43.062;25.624;2023-04-24T13:49:14;25.00;45.00
68387;DHT22;55338;43.062;25.624;2023-04-24T13:51:41;24.80;44.60
68387;DHT22;55338;43.062;25.624;2023-04-24T13:54:07;24.60;45.50
68387;DHT22;55338;43.062;25.624;2023-04-24T13:56:33;24.60;45.30
68387;DHT22;55338;43.062;25.624;2023-04-24T13:58:59;25.00;44.30
68387;DHT22;55338;43.062;25.624;2023-04-24T14:01:25;24.90;44.30
68387;DHT22;55338;43.062;25.624;2023-04-24T14:03:55;25.30;43.10
68387;DHT22;55338;43.062;25.624;2023-04-24T14:06:21;25.70;41.90
68387;DHT22;55338;43.062;25.624;2023-04-24T14:08:47;26.10;41.50
68387;DHT22;55338;43.062;25.624;2023-04-24T14:11:13;25.60;41.50
68387;DHT22;55338;43.062;25.624;2023-04-24T14:13:43;25.30;41.70
68387;DHT22;55338;43.062;25.624;2023-04-24T14:16:10;25.70;41.20
68387;DHT22;55338;43.062;25.624;2023-04-24T14:18:36;25.70;40.00
68387;DHT22;55338;43.062;25.624;2023-04-24T14:21:05;25.60;42.10
68387;DHT22;55338;43.062;25.624;2023-04-24T14:23:31;25.10;41.90
68387;DHT22;55338;43.062;25.624;2023-04-24T14:25:57;24.10;44.40
68387;DHT22;55338;43.062;25.624;2023-04-24T14:28:24;23.90;45.20
68387;DHT22;55338;43.062;25.624;2023-04-24T14:30:50;23.70;45.80
68387;DHT22;55338;43.062;25.624;2023-04-24T14:33:16;23.60;46.00
68387;DHT22;55338;43.062;25.624;2023-04-24T14:35:42;23.60;45.70
68387;DHT22;55338;43.062;25.624;2023-04-24T14:38:08;23.60;46.10
68387;DHT22;55338;43.062;25.624;2023-04-24T14:40:34;23.40;47.20
68387;DHT22;55338;43.062;25.624;2023-04-24T14:43:00;23.10;48.10
68387;DHT22;55338;43.062;25.624;2023-04-24T14:45:26;23.00;49.20
68387;DHT22;55338;43.062;25.624;2023-04-24T14:47:52;22.60;50.00
68387;DHT22;55338;43.062;25.624;2023-04-24T14:50:18;22.40;50.40
68387;DHT22;55338;43.062;25.624;2023-04-24T14:52:44;22.20;51.60
68387;DHT22;55338;43.062;25.624;2023-04-24T14:55:10;22.20;52.10
68387;DHT22;55338;43.062;25.624;2023-04-24T14:57:36;22.10;51.70
68387;DHT22;55338;43.062;25.624;2023-04-24T15:00:06;22.10;51.60
68387;DHT22;55338;43.062;25.624;2023-04-24T15:02:34;21.60;52.50
68387;DHT22;55338;43.062;25.624;2023-04-24T15:05:02;21.50;53.20
68387;DHT22;55338;43.062;25.624;2023-04-24T15:07:28;21.40;53.60
68387;DHT22;55338;43.062;25.624;2023-04-24T15:09:54;21.40;54.70
68387;DHT22;55338;43.062;25.624;2023-04-24T15:12:20;21.40;54.10
68387;DHT22;55338;43.062;25.624;2023-04-24T15:14:46;21.40;54.00
68387;DHT22;55338;43.062;25.624;2023-04-24T15:17:12;21.40;54.00
68387;DHT22;55338;43.062;25.624;2023-04-24T15:19:38;21.30;54.30
68387;DHT22;55338;43.062;25.624;2023-04-24T15:22:03;21.30;54.70
68387;DHT22;55338;43.062;25.624;2023-04-24T15:24:29;21.20;55.60
68387;DHT22;55338;43.062;25.624;2023-04-24T15:26:55;21.10;55.90
68387;DHT22;55338;43.062;25.624;2023-04-24T15:29:21;21.10;55.90
68387;DHT22;55338;43.062;25.624;2023-04-24T15:31:47;21.00;55.70
68387;DHT22;55338;43.062;25.624;2023-04-24T15:34:12;21.00;56.00